Portada
METAR-TAF:

METAR-TAF

Aeroports :

Visalia Municipal Airport

Visalia, Califòrnia, Estats Units d'Amèrica

latitud: 36-19N, longitud: 119-24W, altitud: 89 m

Observació

L'informe es va fer fa 1 hora i 5 minuts, a les 14:56 UTC
Vent 5 kt del Est/Sud-Est
Temperatura 7°C
Humitat 87%
Pressió 1028 hPa
Visibilitat: 16.1 km
Cel clar

METAR: KVIS 261456Z AUTO 11005KT 10SM CLR 07/05 A3035 RMK AO2 SLP287 T00670050 53012

Hora: 08:01 (16:01 UTC)

Pronòstic

L'informe es va fer fa 4 hores i 41 minuts, a les 11:20 UTC
Pronòstic vàlid del 26 a les 12 UTC al 27 a les 12 UTC
Vent 3 kt del Est
Visibilitat: 10 km
Cel clar
Temporalment
l' 26 a les 13 UTC al 26 a les 16 UTC
Visibilitat: 4.8 km
boirina

TAF: KVIS 261120Z 2612/2712 10003KT P6SM SKC TEMPO 2613/2616 3SM BR

Observacions i pronòstics meteorològics de més de 4000 aeroports (METAR i TAF).

Les estacions disponibles són els punts grocs i vermells al mapa.

Posi el ratolí al punt desitjat per veure el nom de l'estació.

Feu clic per veure les observacions i els pronòstics meteorològics.

Per canviar el mapa: feu clic els botons verds amb una creu de color negre per apropar; al botó verd amb un guió per allunyar la imatge; o en les fletxes verdes per a mapes adjacents.


METAR-TAF: